createdAt,value
2022-12-15T00:00:04.464Z,73.74
2022-12-15T00:03:13.337Z,73.83
2022-12-15T00:06:19.723Z,73.56
2022-12-15T00:09:30.661Z,73.76
2022-12-15T00:12:39.041Z,73.67
2022-12-15T00:15:44.644Z,73.67
2022-12-15T00:18:49.928Z,73.90
2022-12-15T00:21:55.781Z,73.69
2022-12-15T00:25:01.194Z,74.09
2022-12-15T00:28:06.533Z,73.57
2022-12-15T00:31:12.275Z,73.76
2022-12-15T00:34:17.879Z,73.96
2022-12-15T00:37:25.835Z,73.91
2022-12-15T00:40:16.050Z,73.85
2022-12-15T00:43:03.324Z,73.70
2022-12-15T00:46:08.925Z,73.58
2022-12-15T00:48:56.385Z,73.66
2022-12-15T00:52:06.533Z,73.79
2022-12-15T00:55:12.130Z,73.84
2022-12-15T00:58:17.956Z,73.66
2022-12-15T01:01:29.580Z,73.68
2022-12-15T01:04:37.457Z,73.77
2022-12-15T01:07:43.088Z,73.81
2022-12-15T01:10:48.644Z,73.92
2022-12-15T01:13:54.091Z,73.55
2022-12-15T01:16:59.316Z,73.93
2022-12-15T01:20:04.730Z,74.23
2022-12-15T01:22:54.395Z,73.71
2022-12-15T01:25:41.194Z,73.79
2022-12-15T01:28:28.748Z,74.23
2022-12-15T01:31:15.939Z,73.55
2022-12-15T01:34:02.851Z,73.60
2022-12-15T01:36:49.741Z,73.96
2022-12-15T01:39:55.288Z,73.97
2022-12-15T01:42:42.293Z,73.76
2022-12-15T01:45:29.042Z,73.99
2022-12-15T01:48:27.543Z,73.86
2022-12-15T01:51:19.951Z,73.73
2022-12-15T01:54:10.429Z,73.99
2022-12-15T01:57:05.264Z,73.94
2022-12-15T01:59:56.717Z,73.91
2022-12-15T02:02:43.690Z,73.95
2022-12-15T02:05:33.949Z,73.75
2022-12-15T02:08:20.973Z,74.06
2022-12-15T02:11:45.638Z,73.62
2022-12-15T02:14:53.439Z,73.68
2022-12-15T02:17:58.751Z,73.83
2022-12-15T02:21:20.847Z,74.36
2022-12-15T02:24:38.101Z,73.60
2022-12-15T02:27:47.783Z,74.02
2022-12-15T02:31:08.862Z,73.80
2022-12-15T02:34:06.327Z,73.65
2022-12-15T02:37:00.851Z,74.00
2022-12-15T02:39:47.732Z,73.73
2022-12-15T02:42:39.192Z,73.72
2022-12-15T02:45:37.654Z,73.62
2022-12-15T02:48:38.137Z,73.77
2022-12-15T02:52:15.638Z,73.77
2022-12-15T02:55:23.005Z,74.11
2022-12-15T02:58:27.636Z,73.49
2022-12-15T03:01:34.564Z,73.59
2022-12-15T03:04:22.040Z,73.46
2022-12-15T03:07:10.109Z,73.49
2022-12-15T03:10:00.573Z,73.89
2022-12-15T03:12:47.729Z,73.41
2022-12-15T03:15:35.705Z,73.98
2022-12-15T03:18:23.012Z,73.48
2022-12-15T03:21:09.898Z,73.95
2022-12-15T03:23:56.834Z,73.36
2022-12-15T03:26:43.842Z,73.70
2022-12-15T03:29:30.995Z,73.91
2022-12-15T03:32:17.967Z,73.47
2022-12-15T03:35:05.638Z,73.56
2022-12-15T03:37:55.665Z,73.63
2022-12-15T03:40:42.876Z,73.77
2022-12-15T03:43:30.251Z,73.61
2022-12-15T03:46:17.613Z,74.06
2022-12-15T03:49:04.668Z,73.71
2022-12-15T03:51:54.302Z,73.64
2022-12-15T03:54:43.246Z,73.58
2022-12-15T03:57:30.527Z,74.00
2022-12-15T04:00:18.711Z,73.75
2022-12-15T04:03:05.685Z,73.90
2022-12-15T04:05:52.613Z,73.61
2022-12-15T04:08:39.660Z,73.79
2022-12-15T04:11:26.616Z,73.54
2022-12-15T04:14:15.872Z,73.63
2022-12-15T04:17:02.772Z,73.78
2022-12-15T04:20:08.219Z,74.19
2022-12-15T04:22:56.521Z,73.55
2022-12-15T04:26:01.890Z,73.91
2022-12-15T04:29:07.042Z,73.75
2022-12-15T04:32:12.495Z,73.80
2022-12-15T04:35:17.681Z,73.56
2022-12-15T04:38:23.282Z,73.97
2022-12-15T04:41:28.878Z,74.02
2022-12-15T04:44:34.767Z,73.31
2022-12-15T04:47:42.245Z,73.89
2022-12-15T04:50:47.753Z,73.38
2022-12-15T04:53:55.390Z,73.82
2022-12-15T04:57:00.845Z,73.94
2022-12-15T05:00:06.446Z,73.71
2022-12-15T05:03:17.977Z,73.82
2022-12-15T05:06:24.007Z,73.83
2022-12-15T05:09:29.619Z,73.85
2022-12-15T05:12:35.150Z,73.84
2022-12-15T05:15:40.558Z,73.78
2022-12-15T05:18:45.844Z,74.04
2022-12-15T05:21:51.443Z,73.87
2022-12-15T05:24:57.039Z,73.79
2022-12-15T05:28:02.712Z,74.04
2022-12-15T05:31:07.995Z,73.78
2022-12-15T05:34:08.293Z,73.96
2022-12-15T05:36:56.195Z,73.78
2022-12-15T05:39:42.959Z,73.91
2022-12-15T05:42:29.880Z,73.57
2022-12-15T05:45:16.853Z,74.09
2022-12-15T05:48:03.754Z,73.72
2022-12-15T05:50:50.607Z,73.59
2022-12-15T05:53:43.636Z,73.70
2022-12-15T05:56:30.559Z,73.60
2022-12-15T05:59:19.303Z,74.10
2022-12-15T06:02:06.267Z,73.79
2022-12-15T06:04:58.556Z,73.55
2022-12-15T06:07:47.974Z,73.75
2022-12-15T06:10:43.476Z,73.63
2022-12-15T06:13:34.284Z,73.55
2022-12-15T06:16:27.654Z,73.71
2022-12-15T06:19:57.916Z,73.58
2022-12-15T06:22:49.752Z,73.63
2022-12-15T06:25:37.368Z,73.27
2022-12-15T06:28:25.024Z,73.42
2022-12-15T06:31:12.742Z,73.39
2022-12-15T06:34:02.310Z,73.45
2022-12-15T06:36:50.203Z,73.08
2022-12-15T06:39:36.980Z,73.23
2022-12-15T06:42:23.780Z,73.49
2022-12-15T06:45:10.825Z,73.39
2022-12-15T06:48:01.255Z,73.01
2022-12-15T06:50:50.231Z,73.54
2022-12-15T06:53:41.163Z,73.43
2022-12-15T06:56:33.968Z,73.09
2022-12-15T06:59:24.828Z,73.71
2022-12-15T07:02:21.110Z,72.80
2022-12-15T07:05:10.754Z,73.66
2022-12-15T07:08:02.367Z,73.69
2022-12-15T07:10:51.421Z,73.45
2022-12-15T07:13:41.131Z,73.64
2022-12-15T07:16:27.996Z,73.53
2022-12-15T07:19:15.281Z,73.34
2022-12-15T07:22:02.436Z,73.16
2022-12-15T07:24:49.311Z,74.03
2022-12-15T07:27:37.868Z,73.64
2022-12-15T07:30:24.633Z,73.25
2022-12-15T07:33:11.497Z,73.15
2022-12-15T07:35:58.275Z,73.21
2022-12-15T07:38:50.120Z,73.64
2022-12-15T07:41:38.683Z,73.53
2022-12-15T07:44:27.716Z,73.95
2022-12-15T07:47:14.602Z,73.51
2022-12-15T07:50:01.755Z,73.23
2022-12-15T07:52:50.955Z,73.31
2022-12-15T07:56:05.648Z,73.55
2022-12-15T07:58:48.176Z,73.24
2022-12-15T08:01:35.331Z,73.47
2022-12-15T08:04:22.657Z,73.52
2022-12-15T08:07:10.717Z,73.45
2022-12-15T08:09:57.775Z,73.77
2022-12-15T08:12:44.751Z,73.86
2022-12-15T08:15:31.599Z,73.67
2022-12-15T08:18:18.772Z,73.43
2022-12-15T08:21:17.118Z,73.97
2022-12-15T08:24:04.587Z,73.65
2022-12-15T08:27:15.891Z,73.73
2022-12-15T08:30:06.832Z,73.92
2022-12-15T08:33:11.934Z,73.64
2022-12-15T08:36:00.448Z,73.58
2022-12-15T08:38:47.690Z,73.90
2022-12-15T08:41:34.568Z,73.74
2022-12-15T08:44:31.779Z,73.52
2022-12-15T08:47:18.659Z,73.87
2022-12-15T08:50:09.039Z,73.82
2022-12-15T08:53:29.023Z,74.14
2022-12-15T08:56:05.746Z,73.69
2022-12-15T08:58:57.946Z,73.74
2022-12-15T09:01:45.206Z,74.03
2022-12-15T09:04:32.386Z,73.90
2022-12-15T09:07:23.673Z,73.66
2022-12-15T09:10:10.610Z,74.06
2022-12-15T09:12:57.670Z,74.05
2022-12-15T09:16:08.768Z,73.70
2022-12-15T09:18:54.797Z,73.82
2022-12-15T09:21:44.915Z,74.21
2022-12-15T09:24:35.704Z,73.89
2022-12-15T09:27:22.715Z,73.80
2022-12-15T09:30:09.956Z,73.87
2022-12-15T09:32:57.132Z,73.89
2022-12-15T09:35:51.352Z,73.73
2022-12-15T09:38:39.064Z,73.91
2022-12-15T09:41:36.153Z,73.86
2022-12-15T09:44:27.158Z,74.41
2022-12-15T09:47:42.198Z,74.11
2022-12-15T09:50:39.356Z,73.94
2022-12-15T09:53:53.721Z,74.38
2022-12-15T09:56:44.193Z,74.38
2022-12-15T10:00:07.923Z,74.13
2022-12-15T10:03:20.199Z,74.45
2022-12-15T10:09:30.514Z,74.44
2022-12-15T10:12:30.056Z,73.77
2022-12-15T10:15:18.949Z,73.56
2022-12-15T10:18:15.276Z,74.13
2022-12-15T10:21:03.296Z,74.12
2022-12-15T10:23:59.438Z,73.86
2022-12-15T10:27:08.490Z,74.27
2022-12-15T10:30:04.522Z,74.01
2022-12-15T10:33:22.323Z,74.07
2022-12-15T10:55:31.280Z,74.58
2022-12-15T11:03:17.502Z,74.51
2022-12-15T11:07:54.268Z,74.08
2022-12-15T11:18:28.567Z,74.95
2022-12-15T11:22:46.235Z,74.73
2022-12-15T11:25:48.354Z,74.76
2022-12-15T11:31:20.737Z,74.69
2022-12-15T11:33:29.833Z,74.66
2022-12-15T11:37:20.676Z,74.65
2022-12-15T11:44:46.915Z,74.91
2022-12-15T11:48:49.001Z,75.39
2022-12-15T11:56:37.658Z,74.81
2022-12-15T12:04:11.468Z,75.64
2022-12-15T12:11:15.908Z,74.93
2022-12-15T12:18:33.109Z,76.06
2022-12-15T12:21:24.822Z,76.07
2022-12-15T12:24:22.685Z,77.00
2022-12-15T12:27:20.087Z,76.32
2022-12-15T12:30:14.187Z,76.44
2022-12-15T12:33:29.437Z,76.43
2022-12-15T12:36:29.574Z,76.52
2022-12-15T12:39:21.555Z,76.51
2022-12-15T12:42:24.789Z,75.95
2022-12-15T12:45:12.822Z,75.94
2022-12-15T12:48:15.466Z,76.09
2022-12-15T12:51:24.552Z,75.60
2022-12-15T12:54:42.316Z,75.41
2022-12-15T12:57:40.568Z,75.32
2022-12-15T13:00:29.219Z,75.17
2022-12-15T13:03:19.770Z,75.30
2022-12-15T13:06:41.824Z,75.38
2022-12-15T13:09:47.783Z,75.39
2022-12-15T13:12:54.871Z,75.51
2022-12-15T13:15:51.873Z,74.57
2022-12-15T13:19:04.823Z,74.87
2022-12-15T13:22:01.854Z,74.81
2022-12-15T13:24:53.481Z,75.01
2022-12-15T13:27:41.861Z,75.04
2022-12-15T13:30:38.048Z,74.37
2022-12-15T13:33:27.521Z,74.74
2022-12-15T13:36:39.943Z,74.57
2022-12-15T13:39:36.051Z,74.32
2022-12-15T13:42:53.131Z,74.73
2022-12-15T13:45:51.203Z,74.47
2022-12-15T13:49:04.715Z,74.30
2022-12-15T13:51:59.202Z,73.89
2022-12-15T13:54:59.028Z,74.22
2022-12-15T13:57:59.460Z,74.23
2022-12-15T14:00:54.336Z,74.49
2022-12-15T14:04:06.159Z,74.29
2022-12-15T14:07:06.932Z,74.32
2022-12-15T14:09:54.057Z,73.76
2022-12-15T14:12:44.281Z,74.16
2022-12-15T14:15:32.682Z,74.19
2022-12-15T14:18:26.435Z,73.80
2022-12-15T14:21:21.937Z,73.78
2022-12-15T14:24:40.249Z,74.26
2022-12-15T14:27:30.931Z,73.88
2022-12-15T14:30:33.325Z,73.88
2022-12-15T14:33:22.100Z,73.93
2022-12-15T14:36:14.612Z,74.35
2022-12-15T14:39:06.792Z,74.29
2022-12-15T14:41:54.133Z,74.57
2022-12-15T14:44:49.712Z,73.61
2022-12-15T14:47:37.690Z,74.19
2022-12-15T14:50:25.430Z,74.04
2022-12-15T14:53:17.836Z,73.52
2022-12-15T14:56:20.386Z,73.74
2022-12-15T14:59:19.870Z,74.27
2022-12-15T15:02:22.811Z,73.40
2022-12-15T15:03:10.516Z,73.90
2022-12-15T15:05:26.181Z,73.66
2022-12-15T15:08:28.451Z,74.07
2022-12-15T15:11:37.013Z,74.09
2022-12-15T15:14:27.691Z,73.85
2022-12-15T15:17:17.128Z,74.11
2022-12-15T15:20:07.015Z,73.52
2022-12-15T15:23:12.044Z,73.67
2022-12-15T15:26:05.210Z,73.38
2022-12-15T15:28:52.204Z,73.87
2022-12-15T15:31:41.859Z,73.45
2022-12-15T15:34:29.044Z,73.58
2022-12-15T15:37:24.192Z,73.98
2022-12-15T15:40:14.465Z,73.80
2022-12-15T15:43:01.360Z,73.88
2022-12-15T15:45:49.388Z,73.99
2022-12-15T15:49:39.444Z,73.67
2022-12-15T15:56:19.932Z,73.00
2022-12-15T16:02:57.333Z,73.07
2022-12-15T16:06:20.826Z,73.22
2022-12-15T16:09:24.222Z,72.78
2022-12-15T16:12:46.149Z,73.23
2022-12-15T16:16:20.099Z,73.38
2022-12-15T16:19:13.310Z,73.37
2022-12-15T16:22:30.035Z,73.57
2022-12-15T16:25:50.321Z,73.65
2022-12-15T16:28:43.872Z,73.44
2022-12-15T16:32:05.425Z,73.53
2022-12-15T16:34:55.052Z,73.50
2022-12-15T16:37:46.572Z,73.48
2022-12-15T16:40:37.480Z,73.40
2022-12-15T16:43:32.890Z,73.37
2022-12-15T16:46:23.156Z,73.43
2022-12-15T16:49:11.229Z,73.66
2022-12-15T16:52:00.843Z,73.59
2022-12-15T16:54:49.081Z,73.73
2022-12-15T16:57:35.839Z,73.74
2022-12-15T17:00:26.061Z,73.49
2022-12-15T17:03:14.562Z,74.01
2022-12-15T17:06:06.710Z,73.67
2022-12-15T17:08:55.105Z,73.41
2022-12-15T17:11:42.333Z,73.46
2022-12-15T17:14:29.106Z,73.27
2022-12-15T17:17:17.535Z,73.84
2022-12-15T17:20:28.483Z,73.92
2022-12-15T17:23:17.510Z,73.67
2022-12-15T17:26:28.138Z,73.22
2022-12-15T17:29:16.541Z,73.27
2022-12-15T17:32:03.621Z,73.81
2022-12-15T17:34:50.691Z,73.56
2022-12-15T17:37:38.044Z,73.23
2022-12-15T17:40:25.264Z,73.26
2022-12-15T17:43:36.812Z,73.53
2022-12-15T17:46:27.969Z,73.59
2022-12-15T17:49:19.842Z,73.78
2022-12-15T17:52:28.481Z,73.65
2022-12-15T17:55:35.006Z,73.48
2022-12-15T17:58:27.979Z,73.43
2022-12-15T18:01:40.643Z,73.70
2022-12-15T18:04:36.251Z,73.61
2022-12-15T18:07:23.913Z,74.05
2022-12-15T18:10:42.786Z,73.85
2022-12-15T18:13:35.536Z,73.91
2022-12-15T18:16:24.676Z,73.62
2022-12-15T18:19:12.000Z,73.47
2022-12-15T18:21:59.203Z,73.69
2022-12-15T18:24:48.921Z,73.68
2022-12-15T18:27:35.832Z,73.43
2022-12-15T18:30:26.658Z,74.14
2022-12-15T18:33:14.029Z,74.16
2022-12-15T18:36:11.330Z,73.78
2022-12-15T18:39:23.639Z,73.96
2022-12-15T18:42:17.839Z,74.50
2022-12-15T18:45:13.376Z,73.98
2022-12-15T18:48:04.212Z,73.41
2022-12-15T18:50:55.977Z,74.09
2022-12-15T18:53:42.868Z,73.70
2022-12-15T18:56:37.341Z,73.92
2022-12-15T18:59:27.201Z,73.99
2022-12-15T19:02:20.711Z,74.06
2022-12-15T19:05:28.560Z,73.92
2022-12-15T19:08:36.320Z,73.63
2022-12-15T19:11:41.430Z,73.90
2022-12-15T19:14:40.550Z,73.54
2022-12-15T19:17:49.084Z,73.62
2022-12-15T19:20:54.671Z,73.75
2022-12-15T19:23:41.560Z,73.77
2022-12-15T19:26:36.993Z,73.75
2022-12-15T19:29:23.845Z,73.93
2022-12-15T19:32:35.074Z,73.86
2022-12-15T19:35:22.254Z,73.78
2022-12-15T19:38:24.545Z,74.15
2022-12-15T19:41:26.473Z,74.04
2022-12-15T19:44:20.102Z,73.69
2022-12-15T19:47:20.811Z,73.64
2022-12-15T19:50:15.988Z,73.93
2022-12-15T19:53:06.843Z,73.79
2022-12-15T19:56:03.603Z,74.14
2022-12-15T19:58:53.163Z,73.97
2022-12-15T20:01:43.801Z,73.90
2022-12-15T20:04:32.285Z,73.73
2022-12-15T20:07:32.212Z,74.04
2022-12-15T20:10:29.805Z,74.24
2022-12-15T20:13:25.975Z,73.85
2022-12-15T20:16:19.227Z,74.08
2022-12-15T20:19:06.380Z,74.31
2022-12-15T20:21:55.891Z,73.82
2022-12-15T20:24:44.209Z,73.98
2022-12-15T20:27:31.303Z,73.97
2022-12-15T20:30:35.340Z,74.21
2022-12-15T20:33:22.585Z,73.76
2022-12-15T20:36:13.782Z,73.80
2022-12-15T20:39:06.459Z,73.86
2022-12-15T20:45:41.695Z,73.63
2022-12-15T20:56:40.633Z,75.91
2022-12-15T20:59:45.305Z,75.72
2022-12-15T21:03:04.796Z,75.24
2022-12-15T21:06:26.550Z,75.47
2022-12-15T21:13:12.475Z,74.99
2022-12-15T21:16:18.224Z,75.06
2022-12-15T21:19:34.537Z,74.82
2022-12-15T21:23:29.445Z,74.71
2022-12-15T21:29:52.647Z,74.53
2022-12-15T21:32:52.003Z,74.21
2022-12-15T21:36:14.701Z,74.70
2022-12-15T21:42:38.607Z,74.68
2022-12-15T21:45:47.707Z,74.11
2022-12-15T21:56:11.691Z,74.07
2022-12-15T22:03:02.602Z,73.92
2022-12-15T22:06:13.102Z,74.12
2022-12-15T22:09:22.523Z,74.30
2022-12-15T22:16:32.680Z,73.67
2022-12-15T22:19:46.846Z,73.28
2022-12-15T22:23:20.168Z,73.56
2022-12-15T22:27:22.496Z,73.97
2022-12-15T22:30:33.135Z,73.38
2022-12-15T22:33:47.600Z,73.16
2022-12-15T22:36:48.602Z,73.73
2022-12-15T22:39:47.845Z,73.63
2022-12-15T22:42:47.565Z,73.31
2022-12-15T22:46:10.974Z,73.73
2022-12-15T22:49:26.170Z,72.88
2022-12-15T22:52:47.804Z,73.22
2022-12-15T22:56:04.586Z,73.74
2022-12-15T22:59:32.071Z,73.50
2022-12-15T23:02:44.062Z,73.50
2022-12-15T23:05:52.999Z,73.44
2022-12-15T23:08:55.763Z,73.85
2022-12-15T23:11:55.362Z,73.39
2022-12-15T23:18:20.624Z,73.00
2022-12-15T23:21:30.893Z,72.94
2022-12-15T23:24:31.725Z,73.58
2022-12-15T23:27:26.502Z,73.29
2022-12-15T23:30:44.447Z,73.74
2022-12-15T23:33:46.087Z,73.43
2022-12-15T23:40:39.173Z,73.08
2022-12-15T23:43:42.318Z,73.27
2022-12-15T23:46:36.797Z,73.22
2022-12-15T23:49:46.860Z,73.47
2022-12-15T23:52:43.698Z,73.81
2022-12-15T23:55:43.384Z,73.28
2022-12-15T23:58:57.571Z,73.87
